createdAt,value
2023-04-24T00:01:08.483Z,1.67
2023-04-24T00:03:35.882Z,1.58
2023-04-24T00:06:03.701Z,1.00
2023-04-24T00:08:30.759Z,1.02
2023-04-24T00:10:57.851Z,1.40
2023-04-24T00:13:25.406Z,1.13
2023-04-24T00:15:52.470Z,1.60
2023-04-24T00:18:19.154Z,2.28
2023-04-24T00:20:45.847Z,1.23
2023-04-24T00:23:12.729Z,1.20
2023-04-24T00:25:39.856Z,2.67
2023-04-24T00:28:06.836Z,2.25
2023-04-24T00:30:33.544Z,1.90
2023-04-24T00:33:00.437Z,3.90
2023-04-24T00:35:27.191Z,1.25
2023-04-24T00:37:53.907Z,2.17
2023-04-24T00:40:20.678Z,1.17
2023-04-24T00:42:47.489Z,1.27
2023-04-24T00:45:14.310Z,1.45
2023-04-24T00:47:42.993Z,3.30
2023-04-24T00:50:10.174Z,1.33
2023-04-24T00:52:37.016Z,1.88
2023-04-24T00:55:04.162Z,1.15
2023-04-24T00:57:31.585Z,1.40
2023-04-24T00:59:58.740Z,6.28
2023-04-24T01:02:26.522Z,2.55
2023-04-24T01:04:53.447Z,2.90
2023-04-24T01:07:21.872Z,2.42
2023-04-24T01:09:49.924Z,1.73
2023-04-24T01:12:16.743Z,3.35
2023-04-24T01:14:46.171Z,1.80
2023-04-24T01:17:13.255Z,3.15
2023-04-24T01:19:40.105Z,2.30
2023-04-24T01:22:15.673Z,2.85
2023-04-24T01:24:43.450Z,1.35
2023-04-24T01:27:12.855Z,2.00
2023-04-24T01:29:40.288Z,3.28
2023-04-24T01:32:07.617Z,2.42
2023-04-24T01:34:35.167Z,3.63
2023-04-24T01:37:02.322Z,1.30
2023-04-24T01:39:29.610Z,1.00
2023-04-24T01:41:57.209Z,2.42
2023-04-24T01:44:24.438Z,1.00
2023-04-24T01:46:51.530Z,4.35
2023-04-24T01:49:18.775Z,2.50
2023-04-24T01:51:46.033Z,1.35
2023-04-24T01:54:13.539Z,2.20
2023-04-24T01:56:43.513Z,3.70
2023-04-24T01:59:12.097Z,1.63
2023-04-24T02:01:39.239Z,2.95
2023-04-24T02:04:07.534Z,2.78
2023-04-24T02:06:36.011Z,4.20
2023-04-24T02:09:04.022Z,1.90
2023-04-24T02:11:31.148Z,1.50
2023-04-24T02:13:58.298Z,2.22
2023-04-24T02:16:25.664Z,1.67
2023-04-24T02:18:52.460Z,2.60
2023-04-24T02:21:19.192Z,2.45
2023-04-24T02:23:45.908Z,5.80
2023-04-24T02:26:13.472Z,4.25
2023-04-24T02:28:40.381Z,2.83
2023-04-24T02:31:07.392Z,2.47
2023-04-24T02:33:34.304Z,3.30
2023-04-24T02:36:01.168Z,2.97
2023-04-24T02:38:28.173Z,1.92
2023-04-24T02:40:54.929Z,2.92
2023-04-24T02:43:21.840Z,2.08
2023-04-24T02:45:49.823Z,2.20
2023-04-24T02:48:16.613Z,2.10
2023-04-24T02:50:43.314Z,5.93
2023-04-24T02:53:10.124Z,2.80
2023-04-24T02:55:37.064Z,4.38
2023-04-24T02:58:03.914Z,3.60
2023-04-24T03:00:30.911Z,4.40
2023-04-24T03:02:58.045Z,4.00
2023-04-24T03:05:24.855Z,4.40
2023-04-24T03:07:53.548Z,3.58
2023-04-24T03:10:23.493Z,5.57
2023-04-24T03:12:50.497Z,5.82
2023-04-24T03:15:18.891Z,5.65
2023-04-24T03:17:45.892Z,4.57
2023-04-24T03:20:13.060Z,6.10
2023-04-24T03:22:40.061Z,5.88
2023-04-24T03:25:10.384Z,5.45
2023-04-24T03:27:38.279Z,7.97
2023-04-24T03:30:12.255Z,6.50
2023-04-24T03:32:47.972Z,6.25
2023-04-24T03:35:19.819Z,6.57
2023-04-24T03:37:46.653Z,6.50
2023-04-24T03:40:39.304Z,9.00
2023-04-24T03:43:16.247Z,7.13
2023-04-24T03:45:43.172Z,8.65
2023-04-24T03:48:10.846Z,8.38
2023-04-24T03:50:37.988Z,7.45
2023-04-24T03:53:06.089Z,10.07
2023-04-24T03:55:37.471Z,12.43
2023-04-24T03:58:04.237Z,8.90
2023-04-24T04:00:32.651Z,11.43
2023-04-24T04:03:19.638Z,9.90
2023-04-24T04:05:46.801Z,13.05
2023-04-24T04:08:13.527Z,9.98
2023-04-24T04:10:40.171Z,10.38
2023-04-24T04:13:07.476Z,11.23
2023-04-24T04:15:35.144Z,8.75
2023-04-24T04:18:01.899Z,10.30
2023-04-24T04:20:29.420Z,13.73
2023-04-24T04:22:56.127Z,12.10
2023-04-24T04:25:34.152Z,13.25
2023-04-24T04:28:01.103Z,9.45
2023-04-24T04:30:30.391Z,9.15
2023-04-24T04:33:03.550Z,11.07
2023-04-24T04:35:31.561Z,9.10
2023-04-24T04:37:59.686Z,12.05
2023-04-24T04:40:43.428Z,14.98
2023-04-24T04:43:12.326Z,11.95
2023-04-24T04:45:45.791Z,11.98
2023-04-24T04:48:41.923Z,9.55
2023-04-24T04:51:08.705Z,10.07
2023-04-24T04:53:35.985Z,10.05
2023-04-24T04:56:03.312Z,12.32
2023-04-24T04:58:36.591Z,10.68
2023-04-24T05:01:04.670Z,14.48
2023-04-24T05:03:37.085Z,11.15
2023-04-24T05:06:07.821Z,13.43
2023-04-24T05:08:38.044Z,12.38
2023-04-24T05:11:07.788Z,12.23
2023-04-24T05:13:39.847Z,12.57
2023-04-24T05:16:28.154Z,17.17
2023-04-24T05:18:55.827Z,15.45
2023-04-24T05:21:28.318Z,13.88
2023-04-24T05:23:55.757Z,12.60
2023-04-24T05:26:44.478Z,15.53
2023-04-24T05:29:12.868Z,14.18
2023-04-24T05:31:39.539Z,15.13
2023-04-24T05:34:06.421Z,12.23
2023-04-24T05:36:33.477Z,12.68
2023-04-24T05:39:00.146Z,16.90
2023-04-24T05:41:26.772Z,13.02
2023-04-24T05:43:53.428Z,18.75
2023-04-24T05:46:21.519Z,15.75
2023-04-24T05:48:48.220Z,13.85
2023-04-24T05:51:14.865Z,13.55
2023-04-24T05:53:41.735Z,17.75
2023-04-24T05:56:08.511Z,12.38
2023-04-24T05:58:36.288Z,13.30
2023-04-24T06:01:03.441Z,13.90
2023-04-24T06:03:30.854Z,13.68
2023-04-24T06:05:57.670Z,12.10
2023-04-24T06:08:25.229Z,12.65
2023-04-24T06:10:53.489Z,15.57
2023-04-24T06:13:22.518Z,13.55
2023-04-24T06:16:24.294Z,11.40
2023-04-24T06:18:57.923Z,13.55
2023-04-24T06:21:25.107Z,9.90
2023-04-24T06:23:51.961Z,9.90
2023-04-24T06:26:18.652Z,15.45
2023-04-24T06:28:45.384Z,11.23
2023-04-24T06:31:12.123Z,14.95
2023-04-24T06:33:39.392Z,15.60
2023-04-24T06:36:06.368Z,11.40
2023-04-24T06:38:33.188Z,11.10
2023-04-24T06:40:59.811Z,9.43
2023-04-24T06:43:26.717Z,9.98
2023-04-24T06:45:53.432Z,11.23
2023-04-24T06:48:20.167Z,11.20
2023-04-24T06:50:47.854Z,6.78
2023-04-24T06:53:15.318Z,7.00
2023-04-24T06:55:42.154Z,8.40
2023-04-24T06:58:09.012Z,7.88
2023-04-24T07:00:35.715Z,6.30
2023-04-24T07:03:03.415Z,10.25
2023-04-24T07:05:30.668Z,6.07
2023-04-24T07:07:59.177Z,8.10
2023-04-24T07:10:28.055Z,5.15
2023-04-24T07:12:55.097Z,6.30
2023-04-24T07:15:21.806Z,6.75
2023-04-24T07:17:48.594Z,8.88
2023-04-24T07:20:15.765Z,7.50
2023-04-24T07:22:42.553Z,9.50
2023-04-24T07:25:09.938Z,7.80
2023-04-24T07:27:37.097Z,8.45
2023-04-24T07:30:05.168Z,10.13
2023-04-24T07:32:31.929Z,8.15
2023-04-24T07:34:58.573Z,10.60
2023-04-24T07:37:25.284Z,8.73
2023-04-24T07:39:52.029Z,8.68
2023-04-24T07:42:18.829Z,6.95
2023-04-24T07:44:46.723Z,6.40
2023-04-24T07:47:13.538Z,5.28
2023-04-24T07:49:40.234Z,6.75
2023-04-24T07:52:06.900Z,5.82
2023-04-24T07:54:33.597Z,7.93
2023-04-24T07:57:01.656Z,6.30
2023-04-24T07:59:28.366Z,5.72
2023-04-24T08:01:55.438Z,6.93
2023-04-24T08:04:22.399Z,5.43
2023-04-24T08:06:49.438Z,8.80
2023-04-24T08:09:16.206Z,5.68
2023-04-24T08:11:42.843Z,5.75
2023-04-24T08:14:09.603Z,5.00
2023-04-24T08:16:36.623Z,6.03
2023-04-24T08:19:03.364Z,6.78
2023-04-24T08:21:30.054Z,7.70
2023-04-24T08:23:56.691Z,6.90
2023-04-24T08:26:23.840Z,7.32
2023-04-24T08:28:50.610Z,6.53
2023-04-24T08:31:17.304Z,7.70
2023-04-24T08:33:45.964Z,6.30
2023-04-24T08:36:12.711Z,6.78
2023-04-24T08:38:40.615Z,4.93
2023-04-24T08:41:10.572Z,4.30
2023-04-24T08:43:39.679Z,4.20
2023-04-24T08:46:11.618Z,5.05
2023-04-24T08:48:39.851Z,3.58
2023-04-24T08:51:09.583Z,3.47
2023-04-24T08:53:36.934Z,3.15
2023-04-24T08:56:04.273Z,3.13
2023-04-24T08:58:32.535Z,3.55
2023-04-24T09:00:59.919Z,2.80
2023-04-24T09:03:29.549Z,4.03
2023-04-24T09:05:58.008Z,4.68
2023-04-24T09:08:26.880Z,2.67
2023-04-24T09:10:54.162Z,2.70
2023-04-24T09:13:21.694Z,3.50
2023-04-24T09:15:48.545Z,2.20
2023-04-24T09:18:15.265Z,2.10
2023-04-24T09:21:10.203Z,3.97
2023-04-24T09:23:37.211Z,4.25
2023-04-24T09:26:07.785Z,2.33
2023-04-24T09:28:38.206Z,3.13
2023-04-24T09:31:15.682Z,2.42
2023-04-24T09:33:55.600Z,3.63
2023-04-24T09:36:29.259Z,3.60
2023-04-24T09:38:59.699Z,2.10
2023-04-24T09:41:26.961Z,2.47
2023-04-24T09:43:56.113Z,2.95
2023-04-24T09:46:31.309Z,4.70
2023-04-24T09:48:58.539Z,2.10
2023-04-24T09:51:37.172Z,2.20
2023-04-24T09:54:05.731Z,5.53
2023-04-24T09:56:35.463Z,2.92
2023-04-24T09:59:06.936Z,2.45
2023-04-24T10:01:34.542Z,2.65
2023-04-24T10:04:02.090Z,2.20
2023-04-24T10:06:35.870Z,2.10
2023-04-24T10:09:03.117Z,2.97
2023-04-24T10:11:31.397Z,12.43
2023-04-24T10:13:58.554Z,4.40
2023-04-24T10:16:28.164Z,4.30
2023-04-24T10:18:56.057Z,3.85
2023-04-24T10:21:23.720Z,2.90
2023-04-24T10:23:51.746Z,2.05
2023-04-24T10:26:18.855Z,3.63
2023-04-24T10:28:47.689Z,1.45
2023-04-24T10:31:15.656Z,2.30
2023-04-24T10:33:44.163Z,3.45
2023-04-24T10:36:12.349Z,3.72
2023-04-24T10:38:42.877Z,8.48
2023-04-24T10:41:24.337Z,5.18
2023-04-24T10:44:10.686Z,5.38
2023-04-24T10:46:39.233Z,3.10
2023-04-24T10:49:07.928Z,3.88
2023-04-24T10:51:49.853Z,4.47
2023-04-24T10:54:41.581Z,3.95
2023-04-24T10:57:20.511Z,3.95
2023-04-24T10:59:48.872Z,6.13
2023-04-24T11:02:16.738Z,3.25
2023-04-24T11:04:44.389Z,5.68
2023-04-24T11:07:11.982Z,6.53
2023-04-24T11:09:41.384Z,4.68
2023-04-24T11:12:13.686Z,3.28
2023-04-24T11:14:59.131Z,5.43
2023-04-24T11:17:41.658Z,5.32
2023-04-24T11:20:25.673Z,5.22
2023-04-24T11:22:55.575Z,4.18
2023-04-24T11:25:23.630Z,5.20
2023-04-24T11:27:51.212Z,4.00
2023-04-24T11:30:21.813Z,6.07
2023-04-24T11:32:51.260Z,3.85
2023-04-24T11:35:25.693Z,5.65
2023-04-24T11:40:26.334Z,5.18
2023-04-24T11:42:56.270Z,3.15
2023-04-24T11:45:25.405Z,2.10
2023-04-24T11:47:52.189Z,1.98
2023-04-24T11:50:20.768Z,1.60
2023-04-24T11:52:49.223Z,2.33
2023-04-24T11:55:15.933Z,2.63
2023-04-24T11:57:47.093Z,2.83
2023-04-24T12:00:28.590Z,4.05
2023-04-24T12:03:10.331Z,4.57
2023-04-24T12:05:37.937Z,4.82
2023-04-24T12:08:05.793Z,4.68
2023-04-24T12:10:34.367Z,2.78
2023-04-24T12:13:01.368Z,7.43
2023-04-24T12:15:28.917Z,4.47
2023-04-24T12:17:57.115Z,11.02
2023-04-24T12:20:30.215Z,7.07
2023-04-24T12:22:59.394Z,6.40
2023-04-24T12:25:28.036Z,4.70
2023-04-24T12:27:56.530Z,6.75
2023-04-24T12:30:29.625Z,10.65
2023-04-24T12:32:59.186Z,8.65
2023-04-24T12:35:28.222Z,9.25
2023-04-24T12:37:55.279Z,8.02
2023-04-24T12:40:23.056Z,5.45
2023-04-24T12:42:51.413Z,7.78
2023-04-24T12:45:21.029Z,4.47
2023-04-24T12:47:49.554Z,6.38
2023-04-24T12:50:16.786Z,6.82
2023-04-24T12:52:44.374Z,4.55
2023-04-24T12:55:12.869Z,7.30
2023-04-24T12:57:40.789Z,4.82
2023-04-24T13:00:09.209Z,6.72
2023-04-24T13:02:36.442Z,3.65
2023-04-24T13:05:03.830Z,7.47
2023-04-24T13:07:30.777Z,6.90
2023-04-24T13:09:58.702Z,6.15
2023-04-24T13:12:26.527Z,5.88
2023-04-24T13:14:54.266Z,5.82
2023-04-24T13:17:21.140Z,7.72
2023-04-24T13:22:28.972Z,6.70
2023-04-24T13:24:55.660Z,4.72
2023-04-24T13:27:22.516Z,5.68
2023-04-24T13:29:49.501Z,4.80
2023-04-24T13:32:16.580Z,6.97
2023-04-24T13:34:43.646Z,6.00
2023-04-24T13:37:10.677Z,8.15
2023-04-24T13:39:37.480Z,5.65
2023-04-24T13:42:05.274Z,5.43
2023-04-24T13:44:32.126Z,6.32
2023-04-24T13:46:59.130Z,3.63
2023-04-24T13:49:26.445Z,3.47
2023-04-24T13:51:54.516Z,1.73
2023-04-24T13:54:21.262Z,4.07
2023-04-24T13:56:47.966Z,3.90
2023-04-24T13:59:14.694Z,2.15
2023-04-24T14:01:41.544Z,2.05
2023-04-24T14:04:08.480Z,4.55
2023-04-24T14:06:35.250Z,1.70
2023-04-24T14:09:01.910Z,2.80
2023-04-24T14:11:28.727Z,6.25
2023-04-24T14:13:59.006Z,4.20
2023-04-24T14:16:26.331Z,7.03
2023-04-24T14:18:53.099Z,2.92
2023-04-24T14:21:19.775Z,1.77
2023-04-24T14:23:46.782Z,1.70
2023-04-24T14:26:13.664Z,2.17
2023-04-24T14:28:40.566Z,1.48
2023-04-24T14:31:07.313Z,2.35
2023-04-24T14:33:34.023Z,1.45
2023-04-24T14:36:00.809Z,2.88
2023-04-24T14:38:27.586Z,1.83
2023-04-24T14:43:23.875Z,3.63
2023-04-24T14:45:50.889Z,1.88
2023-04-24T14:48:18.578Z,1.77
2023-04-24T14:50:46.163Z,2.30
2023-04-24T14:53:12.961Z,1.67
2023-04-24T14:55:39.631Z,1.83
2023-04-24T14:58:06.396Z,1.67
2023-04-24T15:00:33.106Z,3.50
2023-04-24T15:05:28.464Z,0.90
2023-04-24T15:07:55.542Z,2.72
2023-04-24T15:10:23.894Z,1.63
2023-04-24T15:12:50.701Z,2.30
2023-04-24T15:15:17.432Z,2.22
2023-04-24T15:17:44.241Z,5.57
2023-04-24T15:20:11.156Z,6.68
2023-04-24T15:22:37.813Z,2.38
2023-04-24T15:25:05.492Z,4.50
2023-04-24T15:27:45.280Z,3.90
2023-04-24T15:30:13.002Z,2.20
2023-04-24T15:32:40.246Z,3.95
2023-04-24T15:35:09.676Z,2.58
2023-04-24T15:37:38.065Z,3.03
2023-04-24T15:40:07.755Z,3.20
2023-04-24T15:42:34.448Z,2.70
2023-04-24T15:45:01.184Z,3.38
2023-04-24T15:47:27.978Z,2.85
2023-04-24T15:49:54.770Z,2.38
2023-04-24T15:52:21.852Z,7.50
2023-04-24T15:54:48.542Z,2.83
2023-04-24T15:57:15.734Z,4.22
2023-04-24T15:59:42.717Z,4.30
2023-04-24T16:02:19.171Z,4.70
2023-04-24T16:04:50.840Z,2.95
2023-04-24T16:07:20.995Z,6.30
2023-04-24T16:09:47.783Z,2.47
2023-04-24T16:12:14.706Z,4.30
2023-04-24T16:14:41.729Z,8.05
2023-04-24T16:17:08.596Z,3.20
2023-04-24T16:19:35.546Z,5.80
2023-04-24T16:22:03.142Z,4.53
2023-04-24T16:24:30.078Z,5.32
2023-04-24T16:26:56.844Z,6.82
2023-04-24T16:29:23.814Z,5.88
2023-04-24T16:31:50.877Z,5.55
2023-04-24T16:34:17.702Z,5.80
2023-04-24T16:36:44.467Z,7.25
2023-04-24T16:39:11.165Z,3.63
2023-04-24T16:41:37.783Z,7.97
2023-04-24T16:44:04.592Z,3.92
2023-04-24T16:46:31.332Z,6.38
2023-04-24T16:48:58.408Z,4.60
2023-04-24T16:51:25.198Z,8.32
2023-04-24T16:53:51.888Z,10.82
2023-04-24T16:56:18.699Z,5.80
2023-04-24T16:58:45.747Z,6.57
2023-04-24T17:01:12.685Z,7.72
2023-04-24T17:03:39.643Z,8.77
2023-04-24T17:06:07.440Z,5.13
2023-04-24T17:08:34.189Z,5.85
2023-04-24T17:11:01.361Z,6.35
2023-04-24T17:13:28.067Z,5.55
2023-04-24T17:15:54.743Z,7.55
2023-04-24T17:18:21.631Z,9.02
2023-04-24T17:20:48.308Z,6.93
2023-04-24T17:23:15.034Z,9.13
2023-04-24T17:25:41.851Z,6.80
2023-04-24T17:28:24.116Z,3.80
2023-04-24T17:30:50.897Z,6.18
2023-04-24T17:33:17.604Z,6.35
2023-04-24T17:35:44.319Z,5.28
2023-04-24T17:38:12.141Z,5.85
2023-04-24T17:40:39.297Z,9.85
2023-04-24T17:43:06.130Z,6.30
2023-04-24T17:45:33.386Z,8.13
2023-04-24T17:48:00.165Z,5.88
2023-04-24T17:50:26.922Z,6.53
2023-04-24T17:52:53.603Z,5.45
2023-04-24T17:55:20.366Z,8.07
2023-04-24T17:57:47.111Z,3.58
2023-04-24T18:00:14.226Z,3.35
2023-04-24T18:02:41.087Z,2.42
2023-04-24T18:05:07.837Z,5.72
2023-04-24T18:07:34.532Z,4.53
2023-04-24T18:10:01.481Z,6.40
2023-04-24T18:12:28.334Z,7.63
2023-04-24T18:15:06.675Z,7.65
2023-04-24T18:17:40.254Z,4.90
2023-04-24T18:20:07.617Z,9.02
2023-04-24T18:22:34.433Z,5.85
2023-04-24T18:25:01.294Z,3.55
2023-04-24T18:27:30.933Z,6.20
2023-04-24T18:29:58.762Z,5.28
2023-04-24T18:32:27.125Z,3.85
2023-04-24T18:34:54.029Z,8.10
2023-04-24T18:37:20.976Z,4.53
2023-04-24T18:39:47.666Z,4.88
2023-04-24T18:42:15.186Z,9.07
2023-04-24T18:44:42.649Z,2.83
2023-04-24T18:47:10.230Z,6.07
2023-04-24T18:49:37.140Z,5.63
2023-04-24T18:52:04.076Z,6.95
2023-04-24T18:54:31.515Z,6.60
2023-04-24T18:56:58.150Z,4.80
2023-04-24T18:59:24.835Z,3.70
2023-04-24T19:01:51.828Z,5.50
2023-04-24T19:04:20.663Z,9.30
2023-04-24T19:06:47.640Z,6.80
2023-04-24T19:09:14.341Z,8.60
2023-04-24T19:11:41.629Z,10.07
2023-04-24T19:14:08.489Z,8.40
2023-04-24T19:16:35.228Z,13.23
2023-04-24T19:19:03.222Z,7.50
2023-04-24T19:21:33.296Z,6.07
2023-04-24T19:24:00.211Z,12.13
2023-04-24T19:26:28.190Z,5.90
2023-04-24T19:28:58.693Z,5.43
2023-04-24T19:31:25.953Z,7.05
2023-04-24T19:33:52.661Z,5.95
2023-04-24T19:36:19.492Z,11.57
2023-04-24T19:38:47.196Z,7.32
2023-04-24T19:41:14.184Z,5.45
2023-04-24T19:43:40.895Z,9.27
2023-04-24T19:46:07.788Z,8.68
2023-04-24T19:48:34.715Z,10.15
2023-04-24T19:51:02.835Z,8.05
2023-04-24T19:53:30.092Z,8.60
2023-04-24T19:55:57.117Z,8.10
2023-04-24T19:58:23.778Z,6.43
2023-04-24T20:00:51.238Z,10.82
2023-04-24T20:03:31.472Z,9.93
2023-04-24T20:05:59.933Z,9.10
2023-04-24T20:08:26.654Z,7.38
2023-04-24T20:10:54.254Z,6.50
2023-04-24T20:13:20.992Z,11.18
2023-04-24T20:15:47.695Z,6.18
2023-04-24T20:18:14.450Z,6.22
2023-04-24T20:20:41.687Z,9.15
2023-04-24T20:23:08.526Z,7.18
2023-04-24T20:25:36.052Z,10.05
2023-04-24T20:28:02.824Z,11.57
2023-04-24T20:30:31.326Z,7.50
2023-04-24T20:32:58.510Z,7.82
2023-04-24T20:35:25.232Z,8.88
2023-04-24T20:37:53.494Z,8.27
2023-04-24T20:40:20.159Z,11.00
2023-04-24T20:42:46.924Z,8.13
2023-04-24T20:45:13.595Z,10.95
2023-04-24T20:47:40.264Z,12.10
2023-04-24T20:50:08.321Z,12.13
2023-04-24T20:52:35.074Z,8.48
2023-04-24T20:55:01.840Z,8.18
2023-04-24T20:57:29.056Z,9.65
2023-04-24T20:59:55.706Z,6.90
2023-04-24T21:02:22.449Z,11.10
2023-04-24T21:04:49.202Z,12.32
2023-04-24T21:07:16.295Z,9.88
2023-04-24T21:09:42.987Z,6.85
2023-04-24T21:12:10.165Z,8.07
2023-04-24T21:14:36.776Z,11.68
2023-04-24T21:17:03.504Z,12.77
2023-04-24T21:19:30.305Z,6.93
2023-04-24T21:21:56.998Z,6.90
2023-04-24T21:24:23.801Z,7.10
2023-04-24T21:26:50.823Z,8.77
2023-04-24T21:29:17.926Z,10.45
2023-04-24T21:31:44.858Z,9.05
2023-04-24T21:34:11.839Z,5.93
2023-04-24T21:36:38.447Z,12.27
2023-04-24T21:39:05.054Z,9.85
2023-04-24T21:41:31.701Z,10.85
2023-04-24T21:43:59.244Z,8.77
2023-04-24T21:46:26.774Z,9.38
2023-04-24T21:48:53.470Z,14.93
2023-04-24T21:51:20.522Z,9.73
2023-04-24T21:53:47.511Z,11.07
2023-04-24T21:56:14.495Z,8.00
2023-04-24T21:58:41.632Z,8.70
2023-04-24T22:01:09.357Z,9.73
2023-04-24T22:03:36.232Z,8.50
2023-04-24T22:06:03.084Z,11.25
2023-04-24T22:08:29.851Z,12.38
2023-04-24T22:10:56.594Z,11.27
2023-04-24T22:13:23.274Z,13.57
2023-04-24T22:15:50.810Z,14.18
2023-04-24T22:18:18.766Z,13.80
2023-04-24T22:20:46.463Z,12.63
2023-04-24T22:23:13.297Z,10.90
2023-04-24T22:25:40.123Z,10.63
2023-04-24T22:28:06.836Z,19.63
2023-04-24T22:30:33.660Z,12.75
2023-04-24T22:33:00.501Z,11.23
2023-04-24T22:35:27.348Z,9.93
2023-04-24T22:37:55.808Z,16.00
2023-04-24T22:40:23.189Z,10.10
2023-04-24T22:42:49.886Z,15.30
2023-04-24T22:45:17.405Z,15.18
2023-04-24T22:47:44.170Z,16.17
2023-04-24T22:50:11.233Z,12.07
2023-04-24T22:52:37.931Z,14.18
2023-04-24T22:55:06.586Z,7.43
2023-04-24T22:57:33.278Z,16.65
2023-04-24T22:59:59.949Z,14.57
2023-04-24T23:02:28.448Z,16.45
2023-04-24T23:04:55.750Z,10.18
2023-04-24T23:07:22.389Z,12.60
2023-04-24T23:09:49.066Z,9.93
2023-04-24T23:12:15.688Z,9.32
2023-04-24T23:14:42.383Z,7.47
2023-04-24T23:17:09.072Z,7.97
2023-04-24T23:19:35.832Z,11.25
2023-04-24T23:22:02.551Z,12.32
2023-04-24T23:24:29.186Z,11.75
2023-04-24T23:26:55.944Z,9.73
2023-04-24T23:29:23.266Z,15.43
2023-04-24T23:31:50.051Z,12.88
2023-04-24T23:34:18.660Z,9.75
2023-04-24T23:36:46.634Z,11.85
2023-04-24T23:39:13.402Z,10.43
2023-04-24T23:41:41.176Z,12.07
2023-04-24T23:44:07.852Z,11.13
2023-04-24T23:46:34.919Z,10.10
2023-04-24T23:49:01.846Z,4.95
2023-04-24T23:51:28.536Z,6.60
2023-04-24T23:53:55.811Z,10.35
2023-04-24T23:56:24.393Z,8.35
2023-04-24T23:58:51.078Z,10.73
